Cottage Grove, Oregon
Current Conditions -  °F | °C
As of 1:34 PM on Saturday 20 Dec 2014 (Local Time) from KEUG Reporting Station
Light Rain Light Rain  
Wind Chill: 52°   Ceiling: 2700
Heat Index: 52°   Visibility: 5mi
Dew Point: 50°   Wind: 14mph
Humidity: 93%   Direction: 180°S
Pressure: 29.75"   Gusts: NA
Location:  43.8°N, 123.06°W
Report Text: KEUG 202134Z 18012KT 5SM -RA BR SCT016 BKN027 OVC050 11/10 A2975 RMK AO2 P0001 T01110100
Loading
Personal Weather Stations






























Interactive Weather Map New forecast layout! Learn more

10-Day Weather Forecast

Advertisements
Track Severe Weather on mobile